sensor_id;sensor_type;location;lat;lon;timestamp;temperature;humidity
67275;DHT22;55463;52.324;5.122;2023-05-10T00:00:25;12.52;99.99
67275;DHT22;55463;52.324;5.122;2023-05-10T00:02:50;12.53;99.99
67275;DHT22;55463;52.324;5.122;2023-05-10T00:05:16;12.49;99.99
67275;DHT22;55463;52.324;5.122;2023-05-10T00:07:41;12.49;99.99
67275;DHT22;55463;52.324;5.122;2023-05-10T00:10:10;12.46;99.99
67275;DHT22;55463;52.324;5.122;2023-05-10T00:12:35;12.45;99.99
67275;DHT22;55463;52.324;5.122;2023-05-10T00:15:01;12.45;99.99
67275;DHT22;55463;52.324;5.122;2023-05-10T00:17:26;12.45;99.99
67275;DHT22;55463;52.324;5.122;2023-05-10T00:19:52;12.42;99.99
67275;DHT22;55463;52.324;5.122;2023-05-10T00:22:17;12.42;99.99
67275;DHT22;55463;52.324;5.122;2023-05-10T00:24:42;12.39;99.99
67275;DHT22;55463;52.324;5.122;2023-05-10T00:27:08;12.36;99.99
67275;DHT22;55463;52.324;5.122;2023-05-10T00:29:33;12.38;99.99
67275;DHT22;55463;52.324;5.122;2023-05-10T00:31:58;12.36;99.99
67275;DHT22;55463;52.324;5.122;2023-05-10T00:34:24;12.34;99.99
67275;DHT22;55463;52.324;5.122;2023-05-10T00:36:50;12.34;99.99
67275;DHT22;55463;52.324;5.122;2023-05-10T00:39:15;12.34;99.99
67275;DHT22;55463;52.324;5.122;2023-05-10T00:41:40;12.32;99.99
67275;DHT22;55463;52.324;5.122;2023-05-10T00:44:06;12.34;99.99
67275;DHT22;55463;52.324;5.122;2023-05-10T00:46:31;12.35;99.99
67275;DHT22;55463;52.324;5.122;2023-05-10T00:48:57;12.36;99.99
67275;DHT22;55463;52.324;5.122;2023-05-10T00:51:23;12.35;99.99
67275;DHT22;55463;52.324;5.122;2023-05-10T00:53:49;12.36;99.99
67275;DHT22;55463;52.324;5.122;2023-05-10T00:56:16;12.39;99.99
67275;DHT22;55463;52.324;5.122;2023-05-10T00:58:41;12.42;99.99
67275;DHT22;55463;52.324;5.122;2023-05-10T01:01:08;12.41;99.99
67275;DHT22;55463;52.324;5.122;2023-05-10T01:03:34;12.42;99.99
67275;DHT22;55463;52.324;5.122;2023-05-10T01:06:01;12.42;99.99
67275;DHT22;55463;52.324;5.122;2023-05-10T01:08:26;12.45;99.99
67275;DHT22;55463;52.324;5.122;2023-05-10T01:10:52;12.48;99.99
67275;DHT22;55463;52.324;5.122;2023-05-10T01:13:38;12.46;99.99
67275;DHT22;55463;52.324;5.122;2023-05-10T01:16:04;12.49;99.99
67275;DHT22;55463;52.324;5.122;2023-05-10T01:18:33;12.49;99.99
67275;DHT22;55463;52.324;5.122;2023-05-10T01:21:19;12.49;99.99
67275;DHT22;55463;52.324;5.122;2023-05-10T01:30:05;12.53;99.99
67275;DHT22;55463;52.324;5.122;2023-05-10T01:33:01;12.50;99.99
67275;DHT22;55463;52.324;5.122;2023-05-10T01:46:38;12.45;99.99
67275;DHT22;55463;52.324;5.122;2023-05-10T01:49:23;12.46;99.99
67275;DHT22;55463;52.324;5.122;2023-05-10T01:51:53;12.43;99.99
67275;DHT22;55463;52.324;5.122;2023-05-10T01:54:21;12.42;99.99
67275;DHT22;55463;52.324;5.122;2023-05-10T01:56:55;12.45;99.99
67275;DHT22;55463;52.324;5.122;2023-05-10T01:59:28;12.43;99.99
67275;DHT22;55463;52.324;5.122;2023-05-10T02:01:57;12.46;99.99
67275;DHT22;55463;52.324;5.122;2023-05-10T02:04:24;12.43;99.99
67275;DHT22;55463;52.324;5.122;2023-05-10T02:06:51;12.43;99.99
67275;DHT22;55463;52.324;5.122;2023-05-10T02:09:18;12.42;99.99
67275;DHT22;55463;52.324;5.122;2023-05-10T02:11:46;12.42;99.99
67275;DHT22;55463;52.324;5.122;2023-05-10T02:14:13;12.45;99.99
67275;DHT22;55463;52.324;5.122;2023-05-10T02:16:41;12.43;99.99
67275;DHT22;55463;52.324;5.122;2023-05-10T02:19:08;12.42;99.99
67275;DHT22;55463;52.324;5.122;2023-05-10T02:21:35;12.42;99.99
67275;DHT22;55463;52.324;5.122;2023-05-10T02:24:02;12.41;99.99
67275;DHT22;55463;52.324;5.122;2023-05-10T02:26:29;12.42;99.99
67275;DHT22;55463;52.324;5.122;2023-05-10T02:28:56;12.43;99.99
67275;DHT22;55463;52.324;5.122;2023-05-10T02:31:23;12.41;99.99
67275;DHT22;55463;52.324;5.122;2023-05-10T02:33:50;12.39;99.99
67275;DHT22;55463;52.324;5.122;2023-05-10T02:36:16;12.39;99.99
67275;DHT22;55463;52.324;5.122;2023-05-10T02:38:43;12.39;99.99
67275;DHT22;55463;52.324;5.122;2023-05-10T02:41:09;12.36;99.99
67275;DHT22;55463;52.324;5.122;2023-05-10T02:43:37;12.38;99.99
67275;DHT22;55463;52.324;5.122;2023-05-10T02:46:05;12.36;99.99
67275;DHT22;55463;52.324;5.122;2023-05-10T02:48:30;12.35;99.99
67275;DHT22;55463;52.324;5.122;2023-05-10T02:50:59;12.34;99.99
67275;DHT22;55463;52.324;5.122;2023-05-10T02:53:34;12.35;99.99
67275;DHT22;55463;52.324;5.122;2023-05-10T02:56:25;12.35;99.99
67275;DHT22;55463;52.324;5.122;2023-05-10T02:58:50;12.34;99.99
67275;DHT22;55463;52.324;5.122;2023-05-10T03:01:15;12.32;99.99
67275;DHT22;55463;52.324;5.122;2023-05-10T03:03:41;12.31;99.99
67275;DHT22;55463;52.324;5.122;2023-05-10T03:06:06;12.26;99.99
67275;DHT22;55463;52.324;5.122;2023-05-10T03:08:32;12.25;99.99
67275;DHT22;55463;52.324;5.122;2023-05-10T03:11:24;12.24;99.99
67275;DHT22;55463;52.324;5.122;2023-05-10T03:16:46;12.26;99.99
67275;DHT22;55463;52.324;5.122;2023-05-10T03:19:28;12.25;99.99
67275;DHT22;55463;52.324;5.122;2023-05-10T03:21:59;12.26;99.99
67275;DHT22;55463;52.324;5.122;2023-05-10T03:24:27;12.31;99.99
67275;DHT22;55463;52.324;5.122;2023-05-10T03:26:55;12.28;99.99
67275;DHT22;55463;52.324;5.122;2023-05-10T03:29:22;12.28;99.99
67275;DHT22;55463;52.324;5.122;2023-05-10T03:31:48;12.31;99.99
67275;DHT22;55463;52.324;5.122;2023-05-10T03:34:13;12.28;99.99
67275;DHT22;55463;52.324;5.122;2023-05-10T03:36:38;12.29;99.99
67275;DHT22;55463;52.324;5.122;2023-05-10T03:39:04;12.26;99.99
67275;DHT22;55463;52.324;5.122;2023-05-10T03:41:29;12.28;99.99
67275;DHT22;55463;52.324;5.122;2023-05-10T03:43:55;12.28;99.99
67275;DHT22;55463;52.324;5.122;2023-05-10T03:46:20;12.25;99.99
67275;DHT22;55463;52.324;5.122;2023-05-10T03:48:45;12.28;99.99
67275;DHT22;55463;52.324;5.122;2023-05-10T03:51:11;12.25;99.99
67275;DHT22;55463;52.324;5.122;2023-05-10T03:53:36;12.26;99.99
67275;DHT22;55463;52.324;5.122;2023-05-10T03:56:01;12.28;99.99
67275;DHT22;55463;52.324;5.122;2023-05-10T03:58:27;12.28;99.99
67275;DHT22;55463;52.324;5.122;2023-05-10T04:00:53;12.29;99.99
67275;DHT22;55463;52.324;5.122;2023-05-10T04:03:18;12.34;99.99
67275;DHT22;55463;52.324;5.122;2023-05-10T04:05:44;12.34;99.99
67275;DHT22;55463;52.324;5.122;2023-05-10T04:08:09;12.35;99.99
67275;DHT22;55463;52.324;5.122;2023-05-10T04:10:34;12.35;99.99
67275;DHT22;55463;52.324;5.122;2023-05-10T04:13:00;12.34;99.99
67275;DHT22;55463;52.324;5.122;2023-05-10T04:15:25;12.34;99.99
67275;DHT22;55463;52.324;5.122;2023-05-10T04:17:51;12.35;99.99
67275;DHT22;55463;52.324;5.122;2023-05-10T04:20:17;12.34;99.99
67275;DHT22;55463;52.324;5.122;2023-05-10T04:22:42;12.31;99.99
67275;DHT22;55463;52.324;5.122;2023-05-10T04:25:08;12.32;99.99
67275;DHT22;55463;52.324;5.122;2023-05-10T04:27:33;12.34;99.99
67275;DHT22;55463;52.324;5.122;2023-05-10T04:29:59;12.32;99.99
67275;DHT22;55463;52.324;5.122;2023-05-10T04:32:24;12.32;99.99
67275;DHT22;55463;52.324;5.122;2023-05-10T04:34:50;12.34;99.99
67275;DHT22;55463;52.324;5.122;2023-05-10T04:37:18;12.35;99.99
67275;DHT22;55463;52.324;5.122;2023-05-10T04:39:45;12.35;99.99
67275;DHT22;55463;52.324;5.122;2023-05-10T04:42:10;12.36;99.99
67275;DHT22;55463;52.324;5.122;2023-05-10T04:44:36;12.35;99.99
67275;DHT22;55463;52.324;5.122;2023-05-10T04:47:01;12.32;99.99
67275;DHT22;55463;52.324;5.122;2023-05-10T04:49:28;12.31;99.99
67275;DHT22;55463;52.324;5.122;2023-05-10T04:51:54;12.35;99.99
67275;DHT22;55463;52.324;5.122;2023-05-10T04:54:19;12.35;99.99
67275;DHT22;55463;52.324;5.122;2023-05-10T04:56:45;12.38;99.99
67275;DHT22;55463;52.324;5.122;2023-05-10T04:59:10;12.36;99.99
67275;DHT22;55463;52.324;5.122;2023-05-10T05:01:36;12.38;99.99
67275;DHT22;55463;52.324;5.122;2023-05-10T05:04:01;12.36;99.99
67275;DHT22;55463;52.324;5.122;2023-05-10T05:06:27;12.39;99.99
67275;DHT22;55463;52.324;5.122;2023-05-10T05:08:52;12.36;99.99
67275;DHT22;55463;52.324;5.122;2023-05-10T05:11:17;12.36;99.99
67275;DHT22;55463;52.324;5.122;2023-05-10T05:13:43;12.36;99.99
67275;DHT22;55463;52.324;5.122;2023-05-10T05:16:08;12.38;99.99
67275;DHT22;55463;52.324;5.122;2023-05-10T05:18:35;12.36;99.99
67275;DHT22;55463;52.324;5.122;2023-05-10T05:21:00;12.38;99.99
67275;DHT22;55463;52.324;5.122;2023-05-10T05:23:26;12.42;99.99
67275;DHT22;55463;52.324;5.122;2023-05-10T05:25:54;12.43;99.99
67275;DHT22;55463;52.324;5.122;2023-05-10T05:28:20;12.46;99.99
67275;DHT22;55463;52.324;5.122;2023-05-10T05:30:46;12.46;99.99
67275;DHT22;55463;52.324;5.122;2023-05-10T05:33:13;12.48;99.99
67275;DHT22;55463;52.324;5.122;2023-05-10T05:35:38;12.50;99.99
67275;DHT22;55463;52.324;5.122;2023-05-10T05:38:04;12.50;99.99
67275;DHT22;55463;52.324;5.122;2023-05-10T05:40:29;12.46;99.99
67275;DHT22;55463;52.324;5.122;2023-05-10T05:42:55;12.45;99.99
67275;DHT22;55463;52.324;5.122;2023-05-10T05:45:20;12.48;99.99
67275;DHT22;55463;52.324;5.122;2023-05-10T05:47:46;12.49;99.99
67275;DHT22;55463;52.324;5.122;2023-05-10T05:50:11;12.52;99.99
67275;DHT22;55463;52.324;5.122;2023-05-10T05:52:37;12.53;99.99
67275;DHT22;55463;52.324;5.122;2023-05-10T05:55:02;12.52;99.99
67275;DHT22;55463;52.324;5.122;2023-05-10T05:57:28;12.56;99.99
67275;DHT22;55463;52.324;5.122;2023-05-10T05:59:53;12.55;99.99
67275;DHT22;55463;52.324;5.122;2023-05-10T06:02:18;12.57;99.99
67275;DHT22;55463;52.324;5.122;2023-05-10T06:04:44;12.53;99.99
67275;DHT22;55463;52.324;5.122;2023-05-10T06:07:09;12.59;99.99
67275;DHT22;55463;52.324;5.122;2023-05-10T06:09:34;12.60;99.99
67275;DHT22;55463;52.324;5.122;2023-05-10T06:12:00;12.67;99.99
67275;DHT22;55463;52.324;5.122;2023-05-10T06:14:25;12.75;99.99
67275;DHT22;55463;52.324;5.122;2023-05-10T06:16:50;12.72;99.99
67275;DHT22;55463;52.324;5.122;2023-05-10T06:19:16;12.80;99.99
67275;DHT22;55463;52.324;5.122;2023-05-10T06:21:41;12.90;99.99
67275;DHT22;55463;52.324;5.122;2023-05-10T06:24:07;12.91;99.99
67275;DHT22;55463;52.324;5.122;2023-05-10T06:26:33;12.94;99.99
67275;DHT22;55463;52.324;5.122;2023-05-10T06:28:58;13.05;99.99
67275;DHT22;55463;52.324;5.122;2023-05-10T06:31:24;13.08;99.99
67275;DHT22;55463;52.324;5.122;2023-05-10T06:33:49;13.10;99.99
67275;DHT22;55463;52.324;5.122;2023-05-10T06:36:14;13.07;99.99
67275;DHT22;55463;52.324;5.122;2023-05-10T06:38:40;13.08;99.99
67275;DHT22;55463;52.324;5.122;2023-05-10T06:41:05;13.07;99.99
67275;DHT22;55463;52.324;5.122;2023-05-10T06:43:31;13.07;99.99
67275;DHT22;55463;52.324;5.122;2023-05-10T06:45:56;13.04;99.99
67275;DHT22;55463;52.324;5.122;2023-05-10T06:48:22;13.04;99.99
67275;DHT22;55463;52.324;5.122;2023-05-10T06:50:47;12.96;99.65
67275;DHT22;55463;52.324;5.122;2023-05-10T06:53:13;12.94;99.99
67275;DHT22;55463;52.324;5.122;2023-05-10T06:55:39;13.01;99.99
67275;DHT22;55463;52.324;5.122;2023-05-10T06:58:04;12.96;99.81
67275;DHT22;55463;52.324;5.122;2023-05-10T07:00:30;12.98;99.99
67275;DHT22;55463;52.324;5.122;2023-05-10T07:02:55;13.01;99.99
67275;DHT22;55463;52.324;5.122;2023-05-10T07:05:21;12.94;99.47
67275;DHT22;55463;52.324;5.122;2023-05-10T07:07:46;12.94;99.94
67275;DHT22;55463;52.324;5.122;2023-05-10T07:10:12;12.93;99.76
67275;DHT22;55463;52.324;5.122;2023-05-10T07:12:37;12.96;99.99
67275;DHT22;55463;52.324;5.122;2023-05-10T07:15:04;12.96;99.99
67275;DHT22;55463;52.324;5.122;2023-05-10T07:17:29;12.93;99.84
67275;DHT22;55463;52.324;5.122;2023-05-10T07:19:54;12.98;99.99
67275;DHT22;55463;52.324;5.122;2023-05-10T07:22:20;13.00;99.69
67275;DHT22;55463;52.324;5.122;2023-05-10T07:24:45;13.00;99.76
67275;DHT22;55463;52.324;5.122;2023-05-10T07:27:11;13.10;99.99
67275;DHT22;55463;52.324;5.122;2023-05-10T07:29:38;13.26;99.99
67275;DHT22;55463;52.324;5.122;2023-05-10T07:32:03;13.36;99.99
67275;DHT22;55463;52.324;5.122;2023-05-10T07:34:29;13.41;99.62
67275;DHT22;55463;52.324;5.122;2023-05-10T07:36:57;13.42;98.87
67275;DHT22;55463;52.324;5.122;2023-05-10T07:39:23;13.46;99.10
67275;DHT22;55463;52.324;5.122;2023-05-10T07:41:48;13.51;98.80
67275;DHT22;55463;52.324;5.122;2023-05-10T07:44:13;13.59;98.69
67275;DHT22;55463;52.324;5.122;2023-05-10T07:46:39;13.69;99.52
67275;DHT22;55463;52.324;5.122;2023-05-10T07:49:04;13.87;99.98
67275;DHT22;55463;52.324;5.122;2023-05-10T07:51:29;13.94;99.14
67275;DHT22;55463;52.324;5.122;2023-05-10T07:53:55;13.94;98.16
67275;DHT22;55463;52.324;5.122;2023-05-10T07:56:28;13.93;96.95
67275;DHT22;55463;52.324;5.122;2023-05-10T07:59:01;13.98;97.32
67275;DHT22;55463;52.324;5.122;2023-05-10T08:01:30;14.10;98.64
67275;DHT22;55463;52.324;5.122;2023-05-10T08:03:55;14.20;98.14
67275;DHT22;55463;52.324;5.122;2023-05-10T08:06:21;14.29;97.95
67275;DHT22;55463;52.324;5.122;2023-05-10T08:08:48;14.33;97.36
67275;DHT22;55463;52.324;5.122;2023-05-10T08:11:18;14.36;97.51
67275;DHT22;55463;52.324;5.122;2023-05-10T08:13:44;14.38;96.71
67275;DHT22;55463;52.324;5.122;2023-05-10T08:16:10;14.43;96.50
67275;DHT22;55463;52.324;5.122;2023-05-10T08:18:35;14.48;96.70
67275;DHT22;55463;52.324;5.122;2023-05-10T08:21:01;14.53;96.87
67275;DHT22;55463;52.324;5.122;2023-05-10T08:23:26;14.52;95.45
67275;DHT22;55463;52.324;5.122;2023-05-10T08:25:51;14.55;95.79
67275;DHT22;55463;52.324;5.122;2023-05-10T08:28:17;14.62;96.57
67275;DHT22;55463;52.324;5.122;2023-05-10T08:30:42;14.66;96.01
67275;DHT22;55463;52.324;5.122;2023-05-10T08:33:07;14.73;96.42
67275;DHT22;55463;52.324;5.122;2023-05-10T08:35:33;14.81;96.03
67275;DHT22;55463;52.324;5.122;2023-05-10T08:38:00;14.84;95.02
67275;DHT22;55463;52.324;5.122;2023-05-10T08:40:26;14.91;95.38
67275;DHT22;55463;52.324;5.122;2023-05-10T08:42:56;15.05;95.79
67275;DHT22;55463;52.324;5.122;2023-05-10T08:45:24;15.18;95.95
67275;DHT22;55463;52.324;5.122;2023-05-10T08:47:51;15.27;93.22
67275;DHT22;55463;52.324;5.122;2023-05-10T08:50:20;15.41;93.77
67275;DHT22;55463;52.324;5.122;2023-05-10T08:52:48;15.52;93.31
67275;DHT22;55463;52.324;5.122;2023-05-10T08:55:17;15.62;92.76
67275;DHT22;55463;52.324;5.122;2023-05-10T08:57:43;15.79;92.11
67275;DHT22;55463;52.324;5.122;2023-05-10T09:00:09;16.05;92.88
67275;DHT22;55463;52.324;5.122;2023-05-10T09:02:36;16.25;92.89
67275;DHT22;55463;52.324;5.122;2023-05-10T09:05:02;16.26;90.50
67275;DHT22;55463;52.324;5.122;2023-05-10T09:07:29;16.33;91.13
67275;DHT22;55463;52.324;5.122;2023-05-10T09:09:55;16.44;90.51
67275;DHT22;55463;52.324;5.122;2023-05-10T09:12:21;16.46;90.94
67275;DHT22;55463;52.324;5.122;2023-05-10T09:14:47;16.38;89.62
67275;DHT22;55463;52.324;5.122;2023-05-10T09:17:13;16.38;90.13
67275;DHT22;55463;52.324;5.122;2023-05-10T09:19:38;16.48;91.54
67275;DHT22;55463;52.324;5.122;2023-05-10T09:22:03;16.49;90.27
67275;DHT22;55463;52.324;5.122;2023-05-10T09:24:29;16.51;90.40
67275;DHT22;55463;52.324;5.122;2023-05-10T09:26:56;16.46;89.12
67275;DHT22;55463;52.324;5.122;2023-05-10T09:29:22;16.32;89.49
67275;DHT22;55463;52.324;5.122;2023-05-10T09:31:49;16.15;88.83
67275;DHT22;55463;52.324;5.122;2023-05-10T09:34:28;16.12;90.23
67275;DHT22;55463;52.324;5.122;2023-05-10T09:36:56;16.03;89.93
67275;DHT22;55463;52.324;5.122;2023-05-10T09:39:30;15.98;90.52
67275;DHT22;55463;52.324;5.122;2023-05-10T09:41:56;16.07;90.96
67275;DHT22;55463;52.324;5.122;2023-05-10T09:44:22;16.12;90.28
67275;DHT22;55463;52.324;5.122;2023-05-10T09:46:51;16.14;90.69
67275;DHT22;55463;52.324;5.122;2023-05-10T09:49:18;16.14;90.70
67275;DHT22;55463;52.324;5.122;2023-05-10T09:51:44;16.14;90.69
67275;DHT22;55463;52.324;5.122;2023-05-10T09:54:16;16.05;89.05
67275;DHT22;55463;52.324;5.122;2023-05-10T09:56:42;16.12;90.07
67275;DHT22;55463;52.324;5.122;2023-05-10T09:59:10;16.08;89.23
67275;DHT22;55463;52.324;5.122;2023-05-10T10:01:36;16.28;89.95
67275;DHT22;55463;52.324;5.122;2023-05-10T10:04:08;16.48;88.99
67275;DHT22;55463;52.324;5.122;2023-05-10T10:06:37;16.76;89.67
67275;DHT22;55463;52.324;5.122;2023-05-10T10:09:04;17.01;87.58
67275;DHT22;55463;52.324;5.122;2023-05-10T10:11:29;17.06;87.32
67275;DHT22;55463;52.324;5.122;2023-05-10T10:13:55;17.06;87.37
67275;DHT22;55463;52.324;5.122;2023-05-10T10:16:21;17.12;87.64
67275;DHT22;55463;52.324;5.122;2023-05-10T10:18:47;17.15;88.25
67275;DHT22;55463;52.324;5.122;2023-05-10T10:21:13;17.11;86.12
67275;DHT22;55463;52.324;5.122;2023-05-10T10:23:40;16.95;85.44
67275;DHT22;55463;52.324;5.122;2023-05-10T10:26:06;16.95;86.51
67275;DHT22;55463;52.324;5.122;2023-05-10T10:28:41;17.04;87.75
67275;DHT22;55463;52.324;5.122;2023-05-10T10:31:40;17.00;85.72
67275;DHT22;55463;52.324;5.122;2023-05-10T10:34:08;16.99;84.94
67275;DHT22;55463;52.324;5.122;2023-05-10T10:36:46;16.93;86.17
67275;DHT22;55463;52.324;5.122;2023-05-10T10:39:13;17.00;86.49
67275;DHT22;55463;52.324;5.122;2023-05-10T10:41:48;17.00;86.03
67275;DHT22;55463;52.324;5.122;2023-05-10T10:52:37;17.00;84.36
67275;DHT22;55463;52.324;5.122;2023-05-10T10:55:14;17.18;87.04
67275;DHT22;55463;52.324;5.122;2023-05-10T10:57:45;17.34;86.27
67275;DHT22;55463;52.324;5.122;2023-05-10T11:03:03;17.55;84.83
67275;DHT22;55463;52.324;5.122;2023-05-10T11:05:47;17.63;85.29
67275;DHT22;55463;52.324;5.122;2023-05-10T11:13:44;17.43;85.52
67275;DHT22;55463;52.324;5.122;2023-05-10T11:18:39;17.27;84.84
67275;DHT22;55463;52.324;5.122;2023-05-10T11:21:04;17.20;85.02
67275;DHT22;55463;52.324;5.122;2023-05-10T11:23:48;17.20;86.40
67275;DHT22;55463;52.324;5.122;2023-05-10T11:26:14;17.17;86.43
67275;DHT22;55463;52.324;5.122;2023-05-10T11:28:47;17.20;85.97
67275;DHT22;55463;52.324;5.122;2023-05-10T11:31:14;17.27;86.74
67275;DHT22;55463;52.324;5.122;2023-05-10T11:33:59;17.45;86.45
67275;DHT22;55463;52.324;5.122;2023-05-10T11:36:28;17.40;84.89
67275;DHT22;55463;52.324;5.122;2023-05-10T11:38:56;17.43;85.42
67275;DHT22;55463;52.324;5.122;2023-05-10T11:41:23;17.40;85.40
67275;DHT22;55463;52.324;5.122;2023-05-10T11:43:58;17.49;86.38
67275;DHT22;55463;52.324;5.122;2023-05-10T11:46:25;17.59;85.13
67275;DHT22;55463;52.324;5.122;2023-05-10T11:48:55;17.62;84.82
67275;DHT22;55463;52.324;5.122;2023-05-10T11:51:22;17.65;84.94
67275;DHT22;55463;52.324;5.122;2023-05-10T11:53:49;17.74;84.90
67275;DHT22;55463;52.324;5.122;2023-05-10T11:56:15;17.66;83.10
67275;DHT22;55463;52.324;5.122;2023-05-10T11:58:40;17.59;83.56
67275;DHT22;55463;52.324;5.122;2023-05-10T12:01:07;17.57;83.53
67275;DHT22;55463;52.324;5.122;2023-05-10T12:03:33;17.57;83.86
67275;DHT22;55463;52.324;5.122;2023-05-10T12:05:59;17.52;83.92
67275;DHT22;55463;52.324;5.122;2023-05-10T12:08:27;17.49;84.19
67275;DHT22;55463;52.324;5.122;2023-05-10T12:11:03;17.50;84.29
67275;DHT22;55463;52.324;5.122;2023-05-10T12:13:29;17.45;84.84
67275;DHT22;55463;52.324;5.122;2023-05-10T12:15:57;17.42;84.85
67275;DHT22;55463;52.324;5.122;2023-05-10T12:18:23;17.31;84.36
67275;DHT22;55463;52.324;5.122;2023-05-10T12:20:52;17.34;85.07
67275;DHT22;55463;52.324;5.122;2023-05-10T12:23:19;17.46;85.55
67275;DHT22;55463;52.324;5.122;2023-05-10T12:25:45;17.46;84.55
67275;DHT22;55463;52.324;5.122;2023-05-10T12:28:11;17.70;85.13
67275;DHT22;55463;52.324;5.122;2023-05-10T12:30:36;18.00;85.07
67275;DHT22;55463;52.324;5.122;2023-05-10T12:33:10;18.24;83.84
67275;DHT22;55463;52.324;5.122;2023-05-10T12:35:53;18.63;82.76
67275;DHT22;55463;52.324;5.122;2023-05-10T12:40:54;19.22;82.58
67275;DHT22;55463;52.324;5.122;2023-05-10T12:43:20;19.24;79.69
67275;DHT22;55463;52.324;5.122;2023-05-10T12:45:46;19.08;78.94
67275;DHT22;55463;52.324;5.122;2023-05-10T12:48:14;18.80;79.57
67275;DHT22;55463;52.324;5.122;2023-05-10T12:50:39;18.73;80.98
67275;DHT22;55463;52.324;5.122;2023-05-10T12:53:05;18.55;81.23
67275;DHT22;55463;52.324;5.122;2023-05-10T12:55:30;18.42;81.40
67275;DHT22;55463;52.324;5.122;2023-05-10T12:57:56;18.21;81.17
67275;DHT22;55463;52.324;5.122;2023-05-10T13:00:21;18.15;82.77
67275;DHT22;55463;52.324;5.122;2023-05-10T13:02:47;18.11;82.68
67275;DHT22;55463;52.324;5.122;2023-05-10T13:05:12;18.05;82.33
67275;DHT22;55463;52.324;5.122;2023-05-10T13:07:38;17.93;82.28
67275;DHT22;55463;52.324;5.122;2023-05-10T13:10:05;18.00;83.16
67275;DHT22;55463;52.324;5.122;2023-05-10T13:12:31;17.91;81.73
67275;DHT22;55463;52.324;5.122;2023-05-10T13:14:56;17.86;82.05
67275;DHT22;55463;52.324;5.122;2023-05-10T13:17:22;17.86;82.02
67275;DHT22;55463;52.324;5.122;2023-05-10T13:19:47;17.96;83.86
67275;DHT22;55463;52.324;5.122;2023-05-10T13:22:13;18.11;82.45
67275;DHT22;55463;52.324;5.122;2023-05-10T13:24:38;18.19;82.74
67275;DHT22;55463;52.324;5.122;2023-05-10T13:27:03;18.44;83.73
67275;DHT22;55463;52.324;5.122;2023-05-10T13:29:29;18.46;82.85
67275;DHT22;55463;52.324;5.122;2023-05-10T13:31:54;18.74;82.38
67275;DHT22;55463;52.324;5.122;2023-05-10T13:34:19;18.83;80.96
67275;DHT22;55463;52.324;5.122;2023-05-10T13:36:46;18.79;80.74
67275;DHT22;55463;52.324;5.122;2023-05-10T13:39:11;18.79;80.89
67275;DHT22;55463;52.324;5.122;2023-05-10T13:41:37;18.73;80.18
67275;DHT22;55463;52.324;5.122;2023-05-10T13:44:03;18.69;80.60
67275;DHT22;55463;52.324;5.122;2023-05-10T13:46:29;18.56;80.52
67275;DHT22;55463;52.324;5.122;2023-05-10T13:48:55;18.42;80.31
67275;DHT22;55463;52.324;5.122;2023-05-10T13:51:22;18.32;80.42
67275;DHT22;55463;52.324;5.122;2023-05-10T13:53:47;18.21;80.34
67275;DHT22;55463;52.324;5.122;2023-05-10T13:56:13;18.10;80.63
67275;DHT22;55463;52.324;5.122;2023-05-10T13:58:40;18.04;82.48
67275;DHT22;55463;52.324;5.122;2023-05-10T14:01:06;17.94;81.45
67275;DHT22;55463;52.324;5.122;2023-05-10T14:03:31;17.84;82.64
67275;DHT22;55463;52.324;5.122;2023-05-10T14:05:57;17.84;81.91
67275;DHT22;55463;52.324;5.122;2023-05-10T14:08:23;17.84;82.94
67275;DHT22;55463;52.324;5.122;2023-05-10T14:10:48;17.86;81.39
67275;DHT22;55463;52.324;5.122;2023-05-10T14:13:14;17.87;81.73
67275;DHT22;55463;52.324;5.122;2023-05-10T14:15:40;17.86;82.18
67275;DHT22;55463;52.324;5.122;2023-05-10T14:18:06;17.87;81.61
67275;DHT22;55463;52.324;5.122;2023-05-10T14:20:31;17.89;81.90
67275;DHT22;55463;52.324;5.122;2023-05-10T14:22:59;17.82;81.62
67275;DHT22;55463;52.324;5.122;2023-05-10T14:25:24;17.65;80.90
67275;DHT22;55463;52.324;5.122;2023-05-10T14:27:50;17.62;81.64
67275;DHT22;55463;52.324;5.122;2023-05-10T14:30:16;17.48;81.63
67275;DHT22;55463;52.324;5.122;2023-05-10T14:32:41;17.48;82.66
67275;DHT22;55463;52.324;5.122;2023-05-10T14:35:07;17.50;81.92
67275;DHT22;55463;52.324;5.122;2023-05-10T14:37:32;17.62;82.21
67275;DHT22;55463;52.324;5.122;2023-05-10T14:39:58;17.84;82.62
67275;DHT22;55463;52.324;5.122;2023-05-10T14:42:23;18.07;82.55
67275;DHT22;55463;52.324;5.122;2023-05-10T14:44:49;18.11;81.48
67275;DHT22;55463;52.324;5.122;2023-05-10T14:47:14;18.51;81.67
67275;DHT22;55463;52.324;5.122;2023-05-10T14:49:39;18.89;81.08
67275;DHT22;55463;52.324;5.122;2023-05-10T14:52:05;19.25;81.56
67275;DHT22;55463;52.324;5.122;2023-05-10T14:54:31;19.48;80.11
67275;DHT22;55463;52.324;5.122;2023-05-10T14:56:58;19.74;79.32
67275;DHT22;55463;52.324;5.122;2023-05-10T14:59:24;19.83;79.11
67275;DHT22;55463;52.324;5.122;2023-05-10T15:01:49;19.89;78.08
67275;DHT22;55463;52.324;5.122;2023-05-10T15:04:15;19.77;77.96
67275;DHT22;55463;52.324;5.122;2023-05-10T15:06:41;19.86;77.22
67275;DHT22;55463;52.324;5.122;2023-05-10T15:09:07;19.93;78.84
67275;DHT22;55463;52.324;5.122;2023-05-10T15:11:32;19.72;76.82
67275;DHT22;55463;52.324;5.122;2023-05-10T15:13:57;19.49;76.78
67275;DHT22;55463;52.324;5.122;2023-05-10T15:16:23;19.36;77.60
67275;DHT22;55463;52.324;5.122;2023-05-10T15:18:48;19.21;77.22
67275;DHT22;55463;52.324;5.122;2023-05-10T15:21:14;18.63;75.84
67275;DHT22;55463;52.324;5.122;2023-05-10T15:23:39;18.57;77.24
67275;DHT22;55463;52.324;5.122;2023-05-10T15:26:05;18.48;78.06
67275;DHT22;55463;52.324;5.122;2023-05-10T15:28:31;18.32;77.60
67275;DHT22;55463;52.324;5.122;2023-05-10T15:30:56;18.36;80.25
67275;DHT22;55463;52.324;5.122;2023-05-10T15:33:22;18.35;79.26
67275;DHT22;55463;52.324;5.122;2023-05-10T15:35:47;18.48;79.83
67275;DHT22;55463;52.324;5.122;2023-05-10T15:38:13;18.51;79.29
67275;DHT22;55463;52.324;5.122;2023-05-10T15:40:39;18.32;78.47
67275;DHT22;55463;52.324;5.122;2023-05-10T15:43:04;18.38;78.50
67275;DHT22;55463;52.324;5.122;2023-05-10T15:45:32;18.42;79.86
67275;DHT22;55463;52.324;5.122;2023-05-10T15:47:58;18.36;78.08
67275;DHT22;55463;52.324;5.122;2023-05-10T15:50:24;18.38;78.40
67275;DHT22;55463;52.324;5.122;2023-05-10T15:52:49;18.31;77.76
67275;DHT22;55463;52.324;5.122;2023-05-10T15:55:16;18.35;78.34
67275;DHT22;55463;52.324;5.122;2023-05-10T15:57:42;18.56;80.09
67275;DHT22;55463;52.324;5.122;2023-05-10T16:00:09;18.73;78.37
67275;DHT22;55463;52.324;5.122;2023-05-10T16:02:35;18.67;77.24
67275;DHT22;55463;52.324;5.122;2023-05-10T16:05:00;18.81;79.17
67275;DHT22;55463;52.324;5.122;2023-05-10T16:07:26;18.91;78.42
67275;DHT22;55463;52.324;5.122;2023-05-10T16:09:51;19.01;79.00